Time;durP1;ratioP1;P1;durP2;ratioP2;P2;SDS_P1;SDS_P2;PMS_P1;PMS_P2;Temp;Humidity;BMP_temperature;BMP_pressure;BME280_temperature;BME280_humidity;BME280_pressure;Samples;Min_cycle;Max_cycle;Signal;HPM_P1;HPM_P2
2022/04/27 00:00:42;;;;;;;6.07;4.53;;;9.40;99.90;;;;;;4957112;29;20184;-84
2022/04/27 00:03:08;;;;;;;5.75;4.40;;;9.40;99.90;;;;;;4957138;29;20185;-84
2022/04/27 00:05:34;;;;;;;5.20;4.13;;;9.40;99.90;;;;;;4957128;29;20178;-84
2022/04/27 00:08:00;;;;;;;6.30;4.53;;;9.40;99.90;;;;;;4956043;28;20225;-84
2022/04/27 00:10:25;;;;;;;5.70;4.07;;;9.40;99.90;;;;;;4956924;29;20185;-84
2022/04/27 00:12:51;;;;;;;8.20;4.20;;;9.40;99.90;;;;;;4956553;29;20185;-84
2022/04/27 00:15:20;;;;;;;5.40;4.57;;;9.40;99.90;;;;;;4957976;28;20207;-84
2022/04/27 00:17:46;;;;;;;4.97;4.20;;;9.30;99.90;;;;;;4956900;29;20188;-84
2022/04/27 00:20:12;;;;;;;6.87;4.03;;;9.30;99.90;;;;;;4956925;29;20548;-83
2022/04/27 00:22:37;;;;;;;7.60;4.43;;;9.30;99.90;;;;;;4956596;29;20631;-82
2022/04/27 00:25:04;;;;;;;4.87;3.87;;;9.30;99.90;;;;;;4957948;28;20181;-82
2022/04/27 00:27:31;;;;;;;7.47;4.10;;;9.40;99.90;;;;;;4956161;29;20604;-82
2022/04/27 00:29:58;;;;;;;6.53;3.83;;;9.40;99.90;;;;;;4957736;28;20224;-84
2022/04/27 00:32:24;;;;;;;5.43;4.10;;;9.40;99.90;;;;;;4956471;29;20684;-83
2022/04/27 00:34:50;;;;;;;6.67;4.00;;;9.30;99.90;;;;;;4957265;28;20519;-83
2022/04/27 00:37:17;;;;;;;4.00;3.60;;;9.30;99.90;;;;;;4958087;28;20201;-83
2022/04/27 00:39:43;;;;;;;5.40;4.00;;;9.20;99.90;;;;;;4957694;28;20256;-83
2022/04/27 00:42:20;;;;;;;7.37;4.43;;;9.10;99.90;;;;;;4956049;29;20643;-83
2022/04/27 00:44:46;;;;;;;5.33;4.40;;;8.90;99.90;;;;;;4956315;29;20531;-83
2022/04/27 00:47:14;;;;;;;7.10;4.40;;;8.80;99.90;;;;;;4957418;28;20205;-84
2022/04/27 00:49:46;;;;;;;5.17;4.30;;;8.80;99.90;;;;;;4956148;29;20244;-84
2022/04/27 00:52:13;;;;;;;5.27;4.40;;;8.80;99.90;;;;;;4956312;29;20229;-83
2022/04/27 00:54:44;;;;;;;6.20;4.10;;;8.80;99.90;;;;;;4956876;28;20648;-84
2022/04/27 00:57:10;;;;;;;5.93;3.97;;;8.80;99.90;;;;;;4956670;28;20201;-84
2022/04/27 00:59:36;;;;;;;5.23;4.00;;;8.90;99.90;;;;;;4955805;29;20181;-83
2022/04/27 01:02:04;;;;;;;5.73;4.50;;;8.90;99.90;;;;;;4957221;28;20191;-83
2022/04/27 01:04:32;;;;;;;5.43;4.13;;;8.80;99.90;;;;;;4957322;28;20180;-83
2022/04/27 01:06:58;;;;;;;4.67;3.97;;;8.50;99.90;;;;;;4955964;29;20178;-83
2022/04/27 01:09:25;;;;;;;4.33;3.93;;;8.50;99.90;;;;;;4955795;29;20192;-83
2022/04/27 01:11:51;;;;;;;5.80;4.33;;;8.40;99.90;;;;;;4956676;28;20491;-83
2022/04/27 01:14:17;;;;;;;5.23;3.93;;;8.50;99.90;;;;;;4957221;28;20181;-83
2022/04/27 01:16:43;;;;;;;5.23;3.80;;;8.40;99.90;;;;;;4957011;29;20568;-83
2022/04/27 01:19:08;;;;;;;7.90;4.10;;;8.50;99.90;;;;;;4956874;28;20201;-83
2022/04/27 01:21:34;;;;;;;5.83;4.30;;;8.50;99.90;;;;;;4955472;29;20271;-83
2022/04/27 01:24:00;;;;;;;7.03;4.93;;;8.40;99.90;;;;;;4956791;29;20207;-83
2022/04/27 01:26:26;;;;;;;8.90;4.73;;;8.40;99.90;;;;;;4956656;28;20588;-83
2022/04/27 01:28:52;;;;;;;5.67;4.90;;;8.30;99.90;;;;;;4955282;29;20224;-83
2022/04/27 01:31:18;;;;;;;5.77;5.17;;;8.30;99.90;;;;;;4956708;28;20186;-83
2022/04/27 01:33:43;;;;;;;7.40;5.70;;;8.40;99.90;;;;;;4954853;29;20193;-84
2022/04/27 01:36:10;;;;;;;5.63;4.67;;;8.40;99.90;;;;;;4955521;29;20581;-83
2022/04/27 01:38:41;;;;;;;6.13;5.20;;;8.40;99.90;;;;;;4955179;29;20252;-83
2022/04/27 01:41:07;;;;;;;8.33;4.80;;;8.30;99.90;;;;;;4955388;29;20277;-83
2022/04/27 01:43:34;;;;;;;6.77;5.27;;;8.20;99.90;;;;;;4955011;29;20185;-83
2022/04/27 01:46:00;;;;;;;7.47;5.37;;;8.30;99.90;;;;;;4956371;28;20189;-84
2022/04/27 01:48:28;;;;;;;5.43;4.90;;;8.30;99.90;;;;;;4956668;28;20212;-83
2022/04/27 01:50:54;;;;;;;6.80;4.90;;;8.30;99.90;;;;;;4955153;29;20608;-83
2022/04/27 01:56:06;;;;;;;7.43;5.90;;;8.40;99.90;;;;;;4956832;29;20289;-84
2022/04/27 01:58:32;;;;;;;6.83;5.30;;;8.10;99.90;;;;;;4935581;29;20628;-83
2022/04/27 02:00:58;;;;;;;7.93;5.77;;;7.90;99.90;;;;;;4937307;29;20178;-84
2022/04/27 02:03:24;;;;;;;7.83;6.13;;;7.70;99.90;;;;;;4951986;29;20311;-83
2022/04/27 02:05:52;;;;;;;6.43;5.37;;;7.60;99.90;;;;;;4954800;29;20296;-83
2022/04/27 02:08:18;;;;;;;6.10;5.13;;;7.50;99.90;;;;;;4956273;28;20236;-82
2022/04/27 02:10:44;;;;;;;7.53;5.20;;;7.40;99.90;;;;;;4954428;29;20631;-83
2022/04/27 02:13:11;;;;;;;6.17;5.43;;;7.50;99.90;;;;;;4954765;29;20192;-83
2022/04/27 02:15:37;;;;;;;6.03;5.07;;;7.60;99.90;;;;;;4955056;29;20497;-84
2022/04/27 02:18:03;;;;;;;6.97;5.93;;;7.60;99.90;;;;;;4956006;29;20224;-83
2022/04/27 02:20:29;;;;;;;6.00;5.40;;;7.60;99.90;;;;;;4956103;28;20213;-83
2022/04/27 02:22:55;;;;;;;5.83;4.90;;;7.60;99.90;;;;;;4954737;29;20251;-83
2022/04/27 02:25:22;;;;;;;5.70;5.10;;;7.60;99.90;;;;;;4954768;29;20177;-83
2022/04/27 02:27:49;;;;;;;8.20;5.00;;;7.50;99.90;;;;;;4954388;29;20671;-82
2022/04/27 02:30:16;;;;;;;6.00;4.50;;;7.40;99.90;;;;;;4956990;28;20228;-83
2022/04/27 02:32:42;;;;;;;6.50;5.03;;;7.40;99.90;;;;;;4959869;28;20184;-83
2022/04/27 02:35:08;;;;;;;5.20;4.20;;;7.50;99.90;;;;;;4959015;29;20216;-83
2022/04/27 02:37:35;;;;;;;5.33;4.23;;;7.60;99.90;;;;;;4960047;28;20162;-83
2022/04/27 02:40:02;;;;;;;6.33;4.53;;;7.70;99.90;;;;;;4958953;28;20204;-83
2022/04/27 02:42:29;;;;;;;5.93;4.40;;;7.70;99.90;;;;;;4958829;28;20632;-83
2022/04/27 02:44:56;;;;;;;6.27;5.00;;;7.70;99.90;;;;;;4953323;29;20613;-83
2022/04/27 02:47:22;;;;;;;5.53;4.43;;;7.70;99.90;;;;;;4940772;29;20232;-84
2022/04/27 02:52:33;;;;;;;5.33;4.60;;;7.80;99.90;;;;;;4940366;29;20272;-83
2022/04/27 02:54:59;;;;;;;5.43;4.40;;;7.80;99.90;;;;;;4939411;29;20206;-83
2022/04/27 02:57:24;;;;;;;6.73;4.80;;;7.70;99.90;;;;;;4950364;29;20647;-83
2022/04/27 02:59:50;;;;;;;6.63;4.50;;;7.70;99.90;;;;;;4959061;28;20182;-83
2022/04/27 03:02:16;;;;;;;5.90;4.57;;;7.70;99.90;;;;;;4957448;29;20251;-84
2022/04/27 03:04:42;;;;;;;6.97;4.83;;;7.70;99.90;;;;;;4959396;29;20180;-84
2022/04/27 03:07:08;;;;;;;7.27;5.03;;;7.60;99.90;;;;;;4958180;29;20217;-84
2022/04/27 03:09:34;;;;;;;6.03;4.97;;;7.50;99.90;;;;;;4958134;29;20189;-83
2022/04/27 03:12:00;;;;;;;7.13;5.10;;;7.40;99.90;;;;;;4957650;29;20189;-83
2022/04/27 03:14:28;;;;;;;5.03;4.40;;;7.50;99.90;;;;;;4959188;28;20213;-83
2022/04/27 03:16:55;;;;;;;4.87;4.37;;;7.50;99.90;;;;;;4957820;29;20177;-83
2022/04/27 03:19:21;;;;;;;5.77;4.90;;;7.50;99.90;;;;;;4959234;28;20177;-83
2022/04/27 03:21:47;;;;;;;6.00;4.40;;;7.50;99.90;;;;;;4958839;28;20176;-83
2022/04/27 03:24:12;;;;;;;7.63;5.07;;;7.50;99.90;;;;;;4957759;29;20236;-83
2022/04/27 03:26:38;;;;;;;5.53;4.93;;;7.40;99.90;;;;;;4957612;29;20193;-83
2022/04/27 03:29:04;;;;;;;5.93;5.20;;;7.30;99.90;;;;;;4957278;29;20209;-84
2022/04/27 03:31:30;;;;;;;10.13;4.80;;;7.10;99.90;;;;;;4957173;29;20310;-84
2022/04/27 03:33:56;;;;;;;8.53;4.47;;;6.90;99.90;;;;;;4957842;29;20505;-84
2022/04/27 03:36:22;;;;;;;7.00;5.43;;;7.10;99.90;;;;;;4957655;29;20188;-84
2022/04/27 03:38:48;;;;;;;6.83;4.90;;;7.10;99.90;;;;;;4958954;28;20522;-84
2022/04/27 03:41:19;;;;;;;12.40;4.80;;;7.00;99.90;;;;;;4957739;28;20241;-84
2022/04/27 03:43:45;;;;;;;9.97;4.80;;;7.00;99.90;;;;;;4958274;28;20169;-83
2022/04/27 03:46:10;;;;;;;5.07;4.43;;;7.10;99.90;;;;;;4957340;29;20185;-84
2022/04/27 03:48:36;;;;;;;7.67;4.90;;;7.10;99.90;;;;;;4958424;28;20236;-83
2022/04/27 03:51:02;;;;;;;7.57;5.03;;;7.10;99.90;;;;;;4957160;29;20201;-83
2022/04/27 03:53:27;;;;;;;6.47;4.70;;;7.10;99.90;;;;;;4958339;28;20233;-83
2022/04/27 03:55:53;;;;;;;5.63;4.73;;;7.10;99.90;;;;;;4957111;29;20584;-83
2022/04/27 03:58:19;;;;;;;9.77;4.93;;;7.00;99.90;;;;;;4956713;29;20233;-83
2022/04/27 04:00:45;;;;;;;6.60;5.40;;;7.10;99.90;;;;;;4958406;28;20200;-83
2022/04/27 04:03:13;;;;;;;10.20;5.23;;;7.00;99.90;;;;;;4955908;29;20182;-83
2022/04/27 04:05:39;;;;;;;6.83;5.30;;;6.90;99.90;;;;;;4958310;28;20608;-83
2022/04/27 04:08:06;;;;;;;7.37;5.13;;;6.90;99.90;;;;;;4956958;29;20217;-83
2022/04/27 04:10:31;;;;;;;6.43;4.80;;;6.80;99.90;;;;;;4958128;28;20173;-83
2022/04/27 04:12:57;;;;;;;6.43;5.20;;;6.80;99.90;;;;;;4957918;28;20192;-84
2022/04/27 04:15:23;;;;;;;7.20;5.00;;;6.70;99.90;;;;;;4957009;29;20631;-84
2022/04/27 04:17:49;;;;;;;7.17;5.07;;;6.70;99.90;;;;;;4958235;28;20608;-84
2022/04/27 04:20:17;;;;;;;5.50;4.90;;;6.70;99.90;;;;;;4958101;29;20259;-83
2022/04/27 04:22:43;;;;;;;5.97;4.97;;;6.70;99.90;;;;;;4956148;29;20188;-83
2022/04/27 04:30:38;;;;;;;6.67;4.70;;;6.60;99.90;;;;;;4958355;29;20721;-84
2022/04/27 04:33:04;;;;;;;6.77;4.73;;;6.60;99.90;;;;;;4956555;29;20201;-83
2022/04/27 04:35:30;;;;;;;5.83;4.90;;;6.70;99.90;;;;;;4956511;29;20177;-84
2022/04/27 04:37:55;;;;;;;7.17;4.93;;;6.70;99.90;;;;;;4957635;29;20185;-83
2022/04/27 04:40:21;;;;;;;7.97;5.10;;;6.80;99.90;;;;;;4956444;29;20628;-83
2022/04/27 04:42:47;;;;;;;7.40;4.93;;;6.70;99.90;;;;;;4956130;29;20280;-84
2022/04/27 04:45:13;;;;;;;5.73;4.97;;;6.60;99.90;;;;;;4953526;29;20173;-84
2022/04/27 04:47:39;;;;;;;4.77;4.27;;;6.60;99.90;;;;;;4952499;29;20213;-83
2022/04/27 04:50:05;;;;;;;9.57;5.00;;;6.60;99.90;;;;;;4938160;29;20181;-83
2022/04/27 04:52:31;;;;;;;4.87;4.37;;;6.50;99.90;;;;;;4952083;28;20276;-83
2022/04/27 04:54:57;;;;;;;5.77;4.57;;;6.50;99.90;;;;;;4937007;29;20249;-83
2022/04/27 04:57:22;;;;;;;5.33;4.70;;;6.60;99.90;;;;;;4957955;28;20227;-83
2022/04/27 04:59:48;;;;;;;6.57;4.70;;;6.70;99.90;;;;;;4957438;28;20197;-84
2022/04/27 05:02:14;;;;;;;8.20;5.20;;;6.80;99.90;;;;;;4955163;29;20193;-83
2022/04/27 05:04:39;;;;;;;5.27;4.77;;;6.90;99.90;;;;;;4957110;29;20189;-83
2022/04/27 05:07:05;;;;;;;8.57;5.10;;;7.00;99.90;;;;;;4957031;29;20601;-83
2022/04/27 05:09:30;;;;;;;6.23;5.23;;;7.20;99.90;;;;;;4955387;29;20199;-83
2022/04/27 05:11:56;;;;;;;8.60;5.23;;;7.20;99.90;;;;;;4955811;29;20181;-84
2022/04/27 05:14:22;;;;;;;7.57;4.93;;;7.30;99.90;;;;;;4955709;29;20189;-84
2022/04/27 05:16:47;;;;;;;6.13;5.10;;;7.40;99.90;;;;;;4955196;29;20193;-84
2022/04/27 05:19:13;;;;;;;7.33;5.10;;;7.40;99.90;;;;;;4957141;29;20170;-83
2022/04/27 05:21:38;;;;;;;6.90;4.53;;;7.60;99.90;;;;;;4956620;29;20189;-84
2022/04/27 05:24:04;;;;;;;9.47;5.03;;;7.60;99.90;;;;;;4955670;29;20185;-84
2022/04/27 05:26:31;;;;;;;9.30;5.20;;;7.70;99.90;;;;;;4956891;28;20212;-84
2022/04/27 05:31:58;;;;;;;6.70;4.90;;;7.80;99.90;;;;;;4956761;29;20600;-83
2022/04/27 05:34:25;;;;;;;6.00;4.80;;;7.80;99.90;;;;;;4955431;29;20200;-82
2022/04/27 05:36:51;;;;;;;8.37;5.20;;;8.00;99.90;;;;;;4955496;29;20228;-82
2022/04/27 05:39:18;;;;;;;6.33;4.77;;;8.00;99.90;;;;;;4955167;29;20561;-83
2022/04/27 05:41:44;;;;;;;7.07;5.13;;;8.10;99.90;;;;;;4955047;29;20189;-82
2022/04/27 05:44:12;;;;;;;7.80;5.37;;;8.10;99.90;;;;;;4955179;29;20192;-82
2022/04/27 05:46:41;;;;;;;7.27;5.30;;;8.20;99.90;;;;;;4954340;29;20200;-82
2022/04/27 05:49:06;;;;;;;8.90;5.33;;;8.20;99.90;;;;;;4955085;29;20248;-84
2022/04/27 05:51:32;;;;;;;8.37;4.80;;;8.30;99.90;;;;;;4955085;29;20192;-84
2022/04/27 05:53:58;;;;;;;8.07;5.80;;;8.30;99.90;;;;;;4956169;29;20674;-83
2022/04/27 05:56:24;;;;;;;12.50;5.60;;;8.40;99.90;;;;;;4954091;29;20185;-83
2022/04/27 05:58:51;;;;;;;8.00;5.47;;;8.50;99.90;;;;;;4956249;28;20173;-83
2022/04/27 06:01:17;;;;;;;8.43;5.63;;;8.50;99.90;;;;;;4956012;28;20292;-83
2022/04/27 06:03:42;;;;;;;8.13;5.90;;;8.50;99.90;;;;;;4954855;28;20641;-85
2022/04/27 06:06:08;;;;;;;8.40;6.17;;;8.50;99.90;;;;;;4954380;29;20508;-85
2022/04/27 06:08:33;;;;;;;9.87;6.33;;;8.60;99.90;;;;;;4955841;29;20655;-84
2022/04/27 06:10:59;;;;;;;9.13;6.07;;;8.70;99.90;;;;;;4955196;28;20207;-84
2022/04/27 06:13:26;;;;;;;6.73;5.33;;;8.70;99.90;;;;;;4954848;29;20280;-84
2022/04/27 06:15:52;;;;;;;7.90;6.20;;;8.80;99.90;;;;;;4954072;29;20635;-84
2022/04/27 06:18:17;;;;;;;7.83;5.27;;;8.90;99.90;;;;;;4955891;28;20181;-84
2022/04/27 06:20:43;;;;;;;6.80;5.33;;;8.90;99.90;;;;;;4955169;29;20639;-84
2022/04/27 06:23:09;;;;;;;6.37;5.63;;;9.00;99.90;;;;;;4954722;29;20185;-84
2022/04/27 06:25:36;;;;;;;8.57;6.40;;;9.00;99.90;;;;;;4955152;28;20186;-83
2022/04/27 06:28:02;;;;;;;10.27;5.90;;;9.10;99.90;;;;;;4954643;29;20248;-85
2022/04/27 06:30:28;;;;;;;7.97;6.10;;;9.10;99.90;;;;;;4954595;28;20189;-86
2022/04/27 06:32:54;;;;;;;7.20;5.60;;;9.20;99.90;;;;;;4956024;28;20628;-85
2022/04/27 06:35:19;;;;;;;9.57;6.20;;;9.20;99.90;;;;;;4954767;29;20515;-85
2022/04/27 06:37:46;;;;;;;7.47;5.80;;;9.30;99.90;;;;;;4954693;29;20520;-85
2022/04/27 06:40:12;;;;;;;7.63;5.60;;;9.30;99.90;;;;;;4954764;29;20259;-85
2022/04/27 06:42:47;;;;;;;8.63;6.00;;;9.40;99.90;;;;;;4955805;28;20627;-85
2022/04/27 06:45:12;;;;;;;7.33;5.23;;;9.50;99.90;;;;;;4955434;28;20173;-85
2022/04/27 06:47:38;;;;;;;8.77;5.80;;;9.60;99.90;;;;;;4954386;29;20217;-84
2022/04/27 06:50:04;;;;;;;6.90;5.60;;;9.70;99.90;;;;;;4954621;29;20268;-84
2022/04/27 06:52:30;;;;;;;7.33;6.07;;;9.70;99.90;;;;;;4955533;28;20284;-84
2022/04/27 06:54:55;;;;;;;8.90;6.37;;;9.90;99.90;;;;;;4947333;29;20197;-84
2022/04/27 06:57:21;;;;;;;8.98;6.13;;;9.90;99.90;;;;;;4955203;29;20188;-86
2022/04/27 06:59:47;;;;;;;7.87;6.00;;;10.00;99.90;;;;;;4952882;29;20189;-85
2022/04/27 07:02:14;;;;;;;8.95;6.50;;;10.10;99.90;;;;;;4953145;29;20639;-85
2022/04/27 07:04:48;;;;;;;9.40;6.57;;;10.10;99.90;;;;;;4955329;28;20182;-85
2022/04/27 07:07:14;;;;;;;6.70;5.60;;;10.10;99.90;;;;;;4955709;28;20252;-86
2022/04/27 07:09:40;;;;;;;8.98;6.63;;;10.30;99.90;;;;;;4954437;29;20278;-86
2022/04/27 07:12:06;;;;;;;6.97;6.27;;;10.40;99.90;;;;;;4955706;28;20231;-86
2022/04/27 07:14:32;;;;;;;11.45;6.30;;;10.50;99.90;;;;;;4955637;28;20178;-85
2022/04/27 07:16:57;;;;;;;9.15;6.50;;;10.60;99.90;;;;;;4957741;28;20232;-85
2022/04/27 07:19:23;;;;;;;9.70;5.82;;;10.70;99.90;;;;;;4958707;28;20235;-85
2022/04/27 07:21:49;;;;;;;9.85;6.47;;;10.80;99.90;;;;;;4954898;29;20639;-84
2022/04/27 07:24:14;;;;;;;7.95;6.60;;;10.90;99.90;;;;;;4956121;29;20181;-85
2022/04/27 07:26:40;;;;;;;8.95;6.65;;;11.00;99.90;;;;;;4957529;29;20275;-86
2022/04/27 07:29:08;;;;;;;8.45;6.35;;;11.00;99.90;;;;;;4957801;29;20213;-86
2022/04/27 07:31:33;;;;;;;9.10;6.85;;;11.10;99.90;;;;;;4949630;29;20189;-88
2022/04/27 07:33:59;;;;;;;10.05;6.53;;;11.10;99.90;;;;;;4946745;29;20243;-88
2022/04/27 07:36:25;;;;;;;7.60;6.55;;;11.20;99.90;;;;;;4946318;29;20193;-86
2022/04/27 07:38:50;;;;;;;7.72;6.20;;;11.30;99.90;;;;;;4956684;29;20232;-88
2022/04/27 07:41:16;;;;;;;9.90;6.15;;;11.40;99.90;;;;;;4956949;29;20188;-86
2022/04/27 07:43:42;;;;;;;9.43;7.32;;;11.60;99.90;;;;;;4948327;29;20193;-87
2022/04/27 07:46:09;;;;;;;7.80;6.93;;;11.70;99.90;;;;;;4950101;29;20240;-87
2022/04/27 07:48:35;;;;;;;7.72;6.88;;;11.70;99.90;;;;;;4957471;28;20251;-88
2022/04/27 07:51:07;;;;;;;9.85;6.57;;;11.80;99.90;;;;;;4946996;29;20637;-88
2022/04/27 07:53:33;;;;;;;10.52;6.30;;;11.90;99.90;;;;;;4956651;28;20260;-90
2022/04/27 07:55:59;;;;;;;7.68;6.45;;;12.00;99.90;;;;;;4947321;29;20524;-88
2022/04/27 07:58:25;;;;;;;10.15;6.90;;;12.10;99.90;;;;;;4949447;29;20192;-88
2022/04/27 08:00:52;;;;;;;7.53;6.55;;;12.20;99.90;;;;;;4947195;29;20186;-88
2022/04/27 08:03:17;;;;;;;6.90;6.18;;;12.40;99.90;;;;;;4950825;29;20201;-88
2022/04/27 08:05:43;;;;;;;9.68;6.40;;;12.50;99.90;;;;;;4949432;29;20182;-90
2022/04/27 08:08:09;;;;;;;9.85;6.60;;;12.60;99.90;;;;;;4948004;29;20253;-88
2022/04/27 08:10:37;;;;;;;8.43;6.90;;;12.70;99.90;;;;;;4954528;29;20239;-88
2022/04/27 08:13:02;;;;;;;8.25;7.03;;;12.70;99.90;;;;;;4948733;29;20193;-89
2022/04/27 08:15:28;;;;;;;9.80;7.40;;;12.80;99.90;;;;;;4956377;28;20208;-89
2022/04/27 08:17:55;;;;;;;11.10;7.35;;;13.00;99.90;;;;;;4946948;29;20613;-89
2022/04/27 08:23:12;;;;;;;9.85;7.00;;;13.00;99.90;;;;;;4952681;29;20228;-89
2022/04/27 08:25:37;;;;;;;9.02;7.18;;;13.20;99.90;;;;;;4956941;29;20602;-89
2022/04/27 08:28:06;;;;;;;6.97;6.00;;;13.20;99.90;;;;;;4951650;28;20252;-91
2022/04/27 08:30:37;;;;;;;11.30;6.68;;;13.30;99.90;;;;;;4952668;29;20632;-88
2022/04/27 08:33:04;;;;;;;10.85;6.22;;;13.50;99.90;;;;;;4955264;28;20212;-90
2022/04/27 08:35:33;;;;;;;8.77;6.53;;;13.50;99.90;;;;;;4951285;29;20519;-89
2022/04/27 08:37:59;;;;;;;9.00;6.20;;;13.50;99.90;;;;;;4955291;29;20207;-89
2022/04/27 08:40:26;;;;;;;7.95;5.78;;;13.50;99.90;;;;;;4956278;29;20537;-91
2022/04/27 08:42:53;;;;;;;6.72;5.93;;;13.60;99.90;;;;;;4957255;29;20185;-91
2022/04/27 08:45:20;;;;;;;7.88;6.43;;;13.70;99.90;;;;;;4957915;28;20174;-94
2022/04/27 08:47:47;;;;;;;9.00;7.20;;;13.80;99.90;;;;;;4957762;28;20213;-89
2022/04/27 08:50:15;;;;;;;9.55;6.82;;;13.90;99.90;;;;;;4955810;29;20189;-91
2022/04/27 08:52:41;;;;;;;8.90;6.60;;;14.00;99.20;;;;;;4956411;29;20279;-90
2022/04/27 08:55:08;;;;;;;8.68;6.90;;;14.10;99.40;;;;;;4956640;29;20209;-90
2022/04/27 08:57:34;;;;;;;8.63;6.88;;;14.20;99.10;;;;;;4956168;29;20199;-89
2022/04/27 09:00:00;;;;;;;11.75;6.40;;;14.30;99.90;;;;;;4955058;29;20188;-89
2022/04/27 09:02:27;;;;;;;9.70;6.90;;;14.40;99.90;;;;;;4954465;29;20494;-91
2022/04/27 09:05:09;;;;;;;7.47;6.00;;;14.30;96.80;;;;;;4956447;29;20275;-90
2022/04/27 09:07:54;;;;;;;9.38;6.47;;;14.30;98.10;;;;;;4955900;29;20205;-90
2022/04/27 09:10:23;;;;;;;11.15;5.88;;;14.30;98.20;;;;;;4956106;29;20272;-89
2022/04/27 09:12:53;;;;;;;9.40;5.93;;;14.40;99.90;;;;;;4956891;28;20176;-88
2022/04/27 09:15:24;;;;;;;9.43;6.80;;;14.50;99.90;;;;;;4956279;29;20185;-90
2022/04/27 09:20:48;;;;;;;8.75;5.45;;;14.80;99.40;;;;;;4957842;29;20240;-88
2022/04/27 09:23:29;;;;;;;7.00;5.57;;;14.70;98.20;;;;;;4956342;29;20775;-89
2022/04/27 09:25:56;;;;;;;11.25;6.47;;;14.90;98.90;;;;;;4955762;29;20184;-91
2022/04/27 09:28:23;;;;;;;11.25;6.10;;;14.90;98.50;;;;;;4956700;28;20213;-90
2022/04/27 09:30:50;;;;;;;7.13;5.38;;;15.00;97.00;;;;;;4957040;28;20508;-91
2022/04/27 09:33:30;;;;;;;10.40;6.28;;;15.10;96.10;;;;;;4955502;29;21190;-88
2022/04/27 09:35:56;;;;;;;7.30;5.00;;;15.20;96.60;;;;;;4956106;29;20181;-90
2022/04/27 09:38:22;;;;;;;10.20;5.00;;;15.30;93.10;;;;;;4955851;28;20187;-90
2022/04/27 09:40:54;;;;;;;6.45;4.30;;;15.40;92.20;;;;;;4955766;29;20189;-90
2022/04/27 09:43:41;;;;;;;6.18;3.53;;;15.30;86.20;;;;;;4955665;29;20181;-89
2022/04/27 09:46:25;;;;;;;6.88;4.57;;;15.30;90.30;;;;;;4955269;29;20286;-88
2022/04/27 09:49:13;;;;;;;8.18;4.03;;;15.30;92.70;;;;;;4955088;29;20239;-87
2022/04/27 09:51:51;;;;;;;7.80;4.55;;;15.40;92.40;;;;;;4954234;29;20193;-89
2022/04/27 09:54:23;;;;;;;7.75;4.65;;;15.50;92.80;;;;;;4918687;29;20187;-87
2022/04/27 09:56:54;;;;;;;7.57;5.32;;;15.60;93.40;;;;;;4902121;29;20243;-90
2022/04/27 09:59:31;;;;;;;8.63;5.32;;;15.80;91.20;;;;;;4898802;29;20239;-92
2022/04/27 10:02:05;;;;;;;8.65;4.50;;;15.80;92.70;;;;;;4898656;29;20202;-92
2022/04/27 10:04:31;;;;;;;8.27;5.25;;;16.10;92.40;;;;;;4902247;29;20202;-90
2022/04/27 10:07:04;;;;;;;8.93;5.20;;;16.20;92.80;;;;;;4916936;29;20190;-92
2022/04/27 10:09:31;;;;;;;8.10;5.55;;;16.30;92.40;;;;;;4918605;29;20257;-89
2022/04/27 10:12:03;;;;;;;5.28;3.78;;;16.20;90.50;;;;;;4918438;29;20179;-89
2022/04/27 10:14:29;;;;;;;6.68;5.10;;;16.30;92.50;;;;;;4918176;29;20163;-89
2022/04/27 10:16:56;;;;;;;8.73;4.80;;;16.30;93.70;;;;;;4916050;29;20644;-91
2022/04/27 10:19:23;;;;;;;5.00;4.30;;;16.50;92.40;;;;;;4916801;29;20205;-90
2022/04/27 10:21:57;;;;;;;7.10;4.35;;;16.50;89.80;;;;;;4917971;29;20186;-91
2022/04/27 10:24:37;;;;;;;7.25;4.72;;;16.70;87.90;;;;;;4917216;29;20206;-91
2022/04/27 10:27:20;;;;;;;6.45;4.65;;;16.70;88.40;;;;;;4918291;29;20182;-89
2022/04/27 10:29:58;;;;;;;6.93;4.22;;;16.70;86.70;;;;;;4917080;29;20278;-91
2022/04/27 10:32:47;;;;;;;8.63;4.63;;;16.70;85.90;;;;;;4917326;29;20189;-90
2022/04/27 10:35:14;;;;;;;9.25;4.28;;;16.70;85.80;;;;;;4916741;29;20187;-91
2022/04/27 10:37:50;;;;;;;7.47;5.30;;;17.00;87.60;;;;;;4916180;29;20186;-91
2022/04/27 10:40:37;;;;;;;8.82;4.82;;;17.10;92.50;;;;;;4915652;29;20497;-91
2022/04/27 10:43:15;;;;;;;9.00;5.55;;;17.30;89.80;;;;;;4909472;29;20569;-95
2022/04/27 10:45:42;;;;;;;6.10;4.78;;;17.60;93.50;;;;;;4917280;29;20175;-91
2022/04/27 10:48:42;;;;;;;6.70;5.55;;;17.90;90.80;;;;;;4914836;29;20222;-93
2022/04/27 10:51:07;;;;;;;8.65;5.40;;;18.00;91.10;;;;;;4918254;29;20190;-88
2022/04/27 10:53:41;;;;;;;8.27;5.38;;;18.20;90.40;;;;;;4952877;29;20228;-92
2022/04/27 10:56:24;;;;;;;7.78;5.28;;;18.10;91.10;;;;;;4960567;28;20625;-93
2022/04/27 10:58:50;;;;;;;7.18;5.10;;;18.00;85.80;;;;;;4960206;28;20177;-91
2022/04/27 11:01:19;;;;;;;6.78;5.32;;;18.10;83.20;;;;;;4945290;28;20186;-93
2022/04/27 11:03:54;;;;;;;7.65;5.30;;;18.00;87.30;;;;;;4939562;29;20181;-93
2022/04/27 11:06:22;;;;;;;7.78;5.40;;;18.10;89.70;;;;;;4956092;29;20220;-91
2022/04/27 11:09:08;;;;;;;8.23;5.63;;;18.10;90.90;;;;;;4957395;29;20225;-85
2022/04/27 11:11:53;;;;;;;7.82;6.00;;;18.10;84.20;;;;;;4959173;28;20163;-91
2022/04/27 11:14:29;;;;;;;8.43;5.45;;;17.80;88.60;;;;;;4957692;29;20233;-85
2022/04/27 11:16:55;;;;;;;7.13;5.78;;;17.50;89.30;;;;;;4958475;29;20585;-90
2022/04/27 11:19:33;;;;;;;9.48;6.53;;;17.40;92.30;;;;;;4959514;29;20549;-92
2022/04/27 11:22:09;;;;;;;6.65;5.68;;;17.50;86.20;;;;;;4942538;29;20519;-89
2022/04/27 11:24:35;;;;;;;7.30;5.65;;;17.70;89.50;;;;;;4939290;29;20173;-90
2022/04/27 11:27:01;;;;;;;6.38;5.55;;;18.10;88.50;;;;;;4939934;29;20186;-92
2022/04/27 11:29:26;;;;;;;7.30;5.43;;;18.20;86.50;;;;;;4939371;29;20224;-92
2022/04/27 11:31:52;;;;;;;7.40;6.43;;;18.20;89.40;;;;;;4953603;29;20220;-90
2022/04/27 11:34:26;;;;;;;6.68;5.63;;;18.20;81.60;;;;;;4958902;28;20289;-93
2022/04/27 11:36:53;;;;;;;6.00;5.07;;;17.90;85.60;;;;;;4957650;28;20557;-92
2022/04/27 11:39:21;;;;;;;6.78;4.90;;;17.90;87.60;;;;;;4958157;29;20504;-90
2022/04/27 11:41:46;;;;;;;6.70;5.32;;;18.00;90.30;;;;;;4957963;29;20177;-92
2022/04/27 11:44:20;;;;;;;8.60;5.20;;;18.10;86.10;;;;;;4958205;29;20592;-94
2022/04/27 11:46:45;;;;;;;5.82;4.90;;;18.20;84.00;;;;;;4957934;29;20177;-91
2022/04/27 11:49:11;;;;;;;10.13;5.95;;;18.00;83.20;;;;;;4957481;29;20224;-90
2022/04/27 11:51:37;;;;;;;7.00;5.90;;;17.90;84.90;;;;;;4957670;29;20272;-90
2022/04/27 11:54:02;;;;;;;9.45;6.30;;;17.80;85.80;;;;;;4958883;29;20263;-88
2022/04/27 11:56:37;;;;;;;10.75;6.00;;;17.60;85.80;;;;;;4958322;29;20585;-88
2022/04/27 11:59:08;;;;;;;8.32;5.95;;;17.70;86.40;;;;;;4958531;28;20172;-90
2022/04/27 12:01:34;;;;;;;8.70;6.70;;;17.90;89.40;;;;;;4957030;28;20182;-93
2022/04/27 12:04:01;;;;;;;8.45;6.53;;;18.10;85.60;;;;;;4956245;29;20280;-90
2022/04/27 12:06:28;;;;;;;8.10;6.50;;;18.00;83.40;;;;;;4957534;29;20173;-91
2022/04/27 12:08:59;;;;;;;8.00;6.20;;;17.80;90.50;;;;;;4957403;29;20235;-88
2022/04/27 12:11:25;;;;;;;12.45;6.60;;;17.90;85.80;;;;;;4957309;29;20174;-89
2022/04/27 12:13:55;;;;;;;8.40;6.75;;;17.70;86.60;;;;;;4958221;28;20177;-88
2022/04/27 12:16:20;;;;;;;8.40;6.63;;;17.60;86.20;;;;;;4956485;29;20181;-88
2022/04/27 12:18:51;;;;;;;9.18;6.90;;;17.50;87.90;;;;;;4956676;29;20273;-90
2022/04/27 12:21:24;;;;;;;11.27;6.78;;;17.30;90.20;;;;;;4956719;29;20189;-88
2022/04/27 12:23:51;;;;;;;9.07;6.63;;;17.30;91.40;;;;;;4958141;28;20603;-87
2022/04/27 12:26:17;;;;;;;7.78;6.35;;;17.20;86.60;;;;;;4957208;28;20503;-87
2022/04/27 12:28:46;;;;;;;8.77;6.68;;;17.20;87.20;;;;;;4957659;29;20276;-86
2022/04/27 12:31:13;;;;;;;9.10;7.10;;;17.40;87.00;;;;;;4956974;29;20193;-87
2022/04/27 12:33:43;;;;;;;10.65;6.35;;;17.70;89.60;;;;;;4955869;29;20189;-89
2022/04/27 12:39:08;;;;;;;8.75;5.90;;;18.10;88.40;;;;;;4958011;29;20525;-87
2022/04/27 12:41:42;;;;;;;8.57;6.53;;;18.30;90.10;;;;;;4955926;29;20189;-88
2022/04/27 12:44:19;;;;;;;8.25;5.95;;;18.50;86.10;;;;;;4956601;29;20272;-88
2022/04/27 12:46:58;;;;;;;8.32;6.28;;;18.70;84.50;;;;;;4956267;29;20177;-88
2022/04/27 12:49:28;;;;;;;9.80;7.00;;;18.90;90.60;;;;;;4954838;29;20215;-88
2022/04/27 12:51:57;;;;;;;8.50;6.40;;;19.00;89.90;;;;;;4948615;29;20531;-88
2022/04/27 12:54:36;;;;;;;7.50;5.80;;;19.20;82.10;;;;;;4937154;29;20186;-88
2022/04/27 12:57:02;;;;;;;8.55;5.78;;;19.40;85.40;;;;;;4937030;29;20506;-89
2022/04/27 12:59:28;;;;;;;7.13;6.18;;;19.50;86.10;;;;;;4949056;29;20193;-88
2022/04/27 13:02:02;;;;;;;8.70;6.63;;;19.50;88.20;;;;;;4955010;29;20236;-86
2022/04/27 13:04:28;;;;;;;8.77;6.25;;;19.50;86.50;;;;;;4956111;29;20259;-86
2022/04/27 13:06:54;;;;;;;8.48;5.68;;;19.50;85.10;;;;;;4955418;29;20177;-87
2022/04/27 13:12:04;;;;;;;7.85;5.53;;;19.90;82.10;;;;;;4957137;29;20215;-88
2022/04/27 13:14:31;;;;;;;8.32;5.78;;;20.00;85.10;;;;;;4957074;28;20260;-88
2022/04/27 13:16:57;;;;;;;8.80;6.07;;;19.90;85.90;;;;;;4954570;29;20244;-86
2022/04/27 13:19:24;;;;;;;8.90;5.65;;;19.70;86.10;;;;;;4955855;29;20185;-93